Meteorología y climatología de Navarra
Datos de la estación - Meteo Navarra

Estación de Getadar GN

Altitud 710 m.


Datos desde el 16/09/2020 hasta el 17/09/2020 en horario solar
Los datos son PROVISIONALES

Anterior Página 1 de 1 Siguiente Descargar: Formato para Excel 2000 o superior   Formato csv   Formato para OpenOffice Calc
Fecha Temperatura Humedad relativa Radiación global Insolación Precipitación Vel. viento 10 m Vel. viento 10 m Dir. viento 10 m
ºC % W/m² s l/m² m/s km/h º
16/09/2020 0:00 18.7 58 0.0 0 0.0 1.2 4.3 344
16/09/2020 0:10 18.9 58 0.0 0 0.0 1.1 4.1 342
16/09/2020 0:20 18.9 58 0.0 0 0.0 1.2 4.2 339
16/09/2020 0:30 18.2 61 0.0 0 0.0 1.4 5.0 356
16/09/2020 0:40 18.2 61 0.0 0 0.0 1.2 4.3 355
16/09/2020 0:50 18.2 62 0.0 0 0.0 1.4 4.9 1
16/09/2020 1:00 18.0 62 0.0 0 0.0 1.3 4.5 359
16/09/2020 1:10 18.0 63 0.0 0 0.0 1.3 4.8 8
16/09/2020 1:20 17.8 64 0.0 0 0.0 0.9 3.2 5
16/09/2020 1:30 17.9 63 0.0 0 0.0 0.7 2.4 356
16/09/2020 1:40 17.9 63 0.0 0 0.0 1.0 3.5 338
16/09/2020 1:50 18.0 62 0.0 0 0.0 0.8 2.7 353
16/09/2020 2:00 17.5 64 0.0 0 0.0 1.2 4.3 2
16/09/2020 2:10 17.6 64 0.0 0 0.0 1.7 6.0 4
16/09/2020 2:20 17.6 64 0.0 0 0.0 1.7 6.1 4
16/09/2020 2:30 17.4 65 0.0 0 0.0 1.8 6.4 8
16/09/2020 2:40 17.2 66 0.0 0 0.0 1.6 5.8 5
16/09/2020 2:50 17.3 66 0.0 0 0.0 1.7 6.2 6
16/09/2020 3:00 17.3 66 0.0 0 0.0 1.9 6.7 8
16/09/2020 3:10 17.0 67 0.0 0 0.0 1.8 6.3 359
16/09/2020 3:20 17.0 67 0.0 0 0.0 1.7 6.3 358
16/09/2020 3:30 17.2 67 0.0 0 0.0 1.7 6.2 6
16/09/2020 3:40 17.2 67 0.0 0 0.0 1.8 6.4 7
16/09/2020 3:50 17.0 67 0.0 0 0.0 1.4 5.0 2
16/09/2020 4:00 17.1 67 0.0 0 0.0 1.3 4.5 5
16/09/2020 4:10 16.8 68 0.0 0 0.0 1.4 4.9 11
16/09/2020 4:20 16.8 68 0.0 0 0.0 1.0 3.7 11
16/09/2020 4:30 16.5 69 0.0 0 0.0 1.0 3.7 356
16/09/2020 4:40 16.3 70 0.0 0 0.0 1.6 5.7 4
16/09/2020 4:50 16.0 71 0.0 0 0.0 1.5 5.3 357
16/09/2020 5:00 16.2 70 0.0 0 0.0 1.5 5.3 359
16/09/2020 5:10 16.1 71 0.0 0 0.0 1.8 6.3 9
16/09/2020 5:20 15.9 71 0.0 0 0.0 1.8 6.3 1
16/09/2020 5:30 15.7 72 0.0 0 0.0 1.8 6.3 1
16/09/2020 5:40 15.8 71 0.0 0 0.0 1.6 5.9 2
16/09/2020 5:50 15.9 71 4.4 0 0.0 1.9 7.0 8
16/09/2020 6:00 15.8 71 21.1 0 0.0 1.7 6.0 2
16/09/2020 6:10 15.9 71 31.1 374 0.0 1.4 4.9 353
16/09/2020 6:20 16.3 69 41.2 592 0.0 1.3 4.5 350
16/09/2020 6:30 16.5 68 72.7 600 0.0 1.2 4.4 5
16/09/2020 6:40 16.5 69 95.6 600 0.0 1.0 3.6 15
16/09/2020 6:50 16.6 69 120.1 600 0.0 0.1 0.4 5
16/09/2020 7:00 16.9 68 147.3 600 0.0 0.3 1.0 3
16/09/2020 7:10 17.4 68 180.0 600 0.0 0.2 0.8 4
16/09/2020 7:20 17.9 66 192.7 600 0.0 0.0 0.0 0
16/09/2020 7:30 18.4 63 242.2 600 0.0 0.1 0.4 155
16/09/2020 7:40 19.4 60 270.0 600 0.0 0.4 1.6 178
16/09/2020 7:50 19.7 59 282.3 600 0.0 0.1 0.5 208
16/09/2020 8:00 20.1 57 333.4 600 0.0 0.3 0.9 204
16/09/2020 8:10 20.6 56 364.9 600 0.0 0.6 2.3 200
16/09/2020 8:20 21.4 54 390.2 600 0.0 0.7 2.5 178
16/09/2020 8:30 21.3 54 412.4 600 0.0 1.0 3.6 188
16/09/2020 8:40 22.1 53 445.6 600 0.0 0.7 2.4 151
16/09/2020 8:50 22.8 51 469.4 600 0.0 0.5 1.8 120
16/09/2020 9:00 23.4 50 493.6 600 0.0 0.7 2.4 141
16/09/2020 9:10 24.0 49 519.7 600 0.0 0.5 1.7 139
16/09/2020 9:20 24.4 48 545.9 600 0.0 0.5 1.8 151
16/09/2020 9:30 24.4 47 572.2 600 0.0 1.5 5.4 162
16/09/2020 9:40 24.3 47 595.7 600 0.0 1.7 6.2 170
16/09/2020 9:50 24.1 48 619.0 600 0.0 1.9 6.9 191
16/09/2020 10:00 25.3 46 635.8 600 0.0 1.3 4.8 161
16/09/2020 10:10 25.4 46 653.3 600 0.0 1.8 6.6 163
16/09/2020 10:20 25.5 45 667.7 600 0.0 2.0 7.3 179
16/09/2020 10:30 25.3 45 685.3 600 0.0 2.3 8.2 202
16/09/2020 10:40 25.8 43 699.8 600 0.0 2.2 8.0 176
16/09/2020 10:50 26.4 42 712.4 600 0.0 2.3 8.4 192
16/09/2020 11:00 26.8 40 722.1 600 0.0 2.1 7.6 173
16/09/2020 11:10 26.7 39 731.6 600 0.0 1.3 4.7 179
16/09/2020 11:20 27.5 38 735.6 600 0.0 1.7 6.0 171
16/09/2020 11:30 27.5 36 742.4 600 0.0 1.9 6.9 153
16/09/2020 11:40 28.2 36 755.0 600 0.0 1.0 3.6 103
16/09/2020 11:50 28.0 36 760.1 600 0.0 1.6 5.6 161
16/09/2020 12:00 28.9 35 770.1 600 0.0 2.0 7.2 167
16/09/2020 12:10 28.1 36 767.6 600 0.0 1.9 6.9 173
16/09/2020 12:20 28.0 35 655.4 484 0.0 1.0 3.5 149
16/09/2020 12:30 29.0 34 801.0 600 0.0 1.7 6.0 158
16/09/2020 12:40 28.6 34 730.8 574 0.0 2.5 9.1 159
16/09/2020 12:50 28.3 33 695.2 528 0.0 1.7 6.2 152
16/09/2020 13:00 29.4 31 729.5 600 0.0 1.2 4.1 112
16/09/2020 13:10 28.4 33 558.8 436 0.0 1.0 3.7 196
16/09/2020 13:20 28.3 34 281.2 68 0.0 1.5 5.3 212
16/09/2020 13:30 28.6 32 709.7 592 0.0 0.9 3.1 174
16/09/2020 13:40 28.9 30 722.1 600 0.0 3.2 11.4 204
16/09/2020 13:50 29.3 28 717.5 600 0.0 3.6 12.8 178
16/09/2020 14:00 29.2 26 657.6 600 0.0 1.9 6.7 177
16/09/2020 14:10 29.5 25 641.2 600 0.0 1.7 6.2 163
16/09/2020 14:20 29.2 28 627.4 600 0.0 1.7 6.3 198
16/09/2020 14:30 28.8 28 326.9 238 0.0 1.4 5.0 255
16/09/2020 14:40 28.7 29 480.8 520 0.0 1.6 5.7 320
16/09/2020 14:50 28.7 29 542.8 600 0.0 1.1 4.1 40
16/09/2020 15:00 29.3 29 403.5 564 0.0 1.3 4.7 157
16/09/2020 15:10 29.0 28 411.9 600 0.0 1.5 5.2 159
16/09/2020 15:20 28.9 28 372.3 544 0.0 1.2 4.2 161
16/09/2020 15:30 29.3 26 427.1 600 0.0 0.8 2.8 134
16/09/2020 15:40 29.2 26 265.8 346 0.0 1.5 5.3 214
16/09/2020 15:50 28.4 29 208.9 260 0.0 1.4 5.0 198
16/09/2020 16:00 28.4 29 218.7 218 0.0 0.4 1.5 156
16/09/2020 16:10 28.4 28 207.2 428 0.0 0.3 1.2 247
16/09/2020 16:20 28.6 29 237.3 600 0.0 0.4 1.4 150
16/09/2020 16:30 28.5 28 227.4 600 0.0 0.7 2.6 206
16/09/2020 16:40 28.5 28 213.6 600 0.0 1.3 4.7 162
16/09/2020 16:50 28.1 28 184.8 600 0.0 2.1 7.5 219
16/09/2020 17:00 28.1 28 167.3 600 0.0 0.9 3.2 211
16/09/2020 17:10 28.2 28 130.3 600 0.0 0.9 3.1 258
16/09/2020 17:20 27.9 28 82.5 194 0.0 0.6 2.1 304
16/09/2020 17:30 27.4 29 55.1 0 0.0 0.8 2.8 330
16/09/2020 17:40 26.4 32 38.4 0 0.0 0.4 1.3 325
16/09/2020 17:50 25.4 35 31.6 46 0.0 1.2 4.5 7
16/09/2020 18:00 24.5 41 24.1 0 0.0 2.3 8.4 7
16/09/2020 18:10 23.8 46 11.4 0 0.0 3.5 12.5 4
16/09/2020 18:20 23.3 49 0.0 0 0.0 2.8 10.0 359
16/09/2020 18:30 22.7 51 0.0 0 0.0 2.8 10.0 349
16/09/2020 18:40 22.7 51 0.0 0 0.0 3.8 13.8 1
16/09/2020 18:50 23.4 49 0.0 0 0.0 4.1 14.6 6
16/09/2020 19:00 24.1 46 0.0 0 0.0 4.3 15.3 7
16/09/2020 19:10 24.2 46 0.0 0 0.0 4.0 14.4 5
16/09/2020 19:20 23.9 46 0.0 0 0.0 3.4 12.4 9
16/09/2020 19:30 23.6 48 0.0 0 0.0 3.2 11.6 360
16/09/2020 19:40 23.1 49 0.0 0 0.0 2.7 9.7 2
16/09/2020 19:50 23.4 48 0.0 0 0.0 2.0 7.2 3
16/09/2020 20:00 23.3 48 0.0 0 0.0 1.0 3.5 348
16/09/2020 20:10 23.0 49 0.0 0 0.0 0.6 2.1 268
16/09/2020 20:20 22.2 51 0.0 0 0.0 0.8 2.7 257
16/09/2020 20:30 22.5 50 0.0 0 0.0 1.2 4.4 282
16/09/2020 20:40 22.4 51 0.0 0 0.0 0.4 1.3 279
16/09/2020 20:50 22.2 51 0.0 0 0.0 0.6 2.1 287
16/09/2020 21:00 22.2 51 0.0 0 0.0 0.7 2.3 320
16/09/2020 21:10 22.2 51 0.0 0 0.0 1.0 3.7 312
16/09/2020 21:20 22.3 50 0.0 0 0.0 1.2 4.4 329
16/09/2020 21:30 22.0 51 0.0 0 0.0 1.4 5.0 331
16/09/2020 21:40 21.8 52 0.0 0 0.0 1.5 5.2 345
16/09/2020 21:50 21.7 52 0.0 0 0.0 1.6 5.8 346
16/09/2020 22:00 21.9 51 0.0 0 0.0 1.3 4.8 336
16/09/2020 22:10 21.9 52 0.0 0 0.0 1.3 4.5 337
16/09/2020 22:20 21.6 52 0.0 0 0.0 1.2 4.5 346
16/09/2020 22:30 21.4 53 0.0 0 0.0 1.1 4.1 357
16/09/2020 22:40 20.9 55 0.0 0 0.0 1.3 4.6 333
16/09/2020 22:50 20.9 54 0.0 0 0.0 0.9 3.3 333
16/09/2020 23:00 21.2 53 0.0 0 0.0 0.7 2.6 336
16/09/2020 23:10 21.0 54 0.0 0 0.0 0.2 0.8 137
16/09/2020 23:20 20.9 54 0.0 0 0.0 0.3 1.2 134
16/09/2020 23:30 20.3 56 0.0 0 0.0 0.2 0.6 360
16/09/2020 23:40 20.1 57 0.0 0 0.0 0.3 1.2 309
16/09/2020 23:50 20.0 57 0.0 0 0.0 0.9 3.1 316
Anterior Página 1 de 1 Siguiente

NOTA: Tipo de datos según el color:
   - Valores diarios o 10 minutos correctos
   - Valores diarios calculados a partir de un número de datos 10 minutos menor que 144 y mayor que 120, o de un número de datos semihorarios menor que 48 y mayor que 40 (caso de las estaciones de INTIA y del Ministerio)
   - Valores diez minutos estimados


Contacto        Enlaces        Aviso legal